Ducos, Argentina
Current Conditions -  °F | °C
As of 10:00 PM on Sunday 23 Nov 2014 (Local Time) from SAZM Reporting Station
Broken Clouds Broken Clouds  
Wind Chill: 22°   Ceiling: 4000
Heat Index: 22°   Visibility: 6mi
Dew Point: 15°   Wind: 7mph
Humidity: 64%   Direction: 160°SSE
Pressure: 29.68"   Gusts: NA
Location:  37.47°S, 62.42°W
Report Text: SAZM 240100Z 16006KT 9999 BKN040 FEW050CBBKN200 22/15 Q1005
Loading
Personal Weather Stations






























Interactive Weather Map New forecast layout! Learn more

10-Day Weather Forecast

Advertisements
Track Severe Weather on mobile